Time;durP1;ratioP1;P1;durP2;ratioP2;P2;SDS_P1;SDS_P2;PMS_P1;PMS_P2;Temp;Humidity;BMP_temperature;BMP_pressure;BME280_temperature;BME280_humidity;BME280_pressure;Samples;Min_cycle;Max_cycle;Signal;HPM_P1;HPM_P2
2023/01/17 00:01:51;;;;;;;0.53;0.53;;;;;;;;;;5052276;28;20220;-66
2023/01/17 00:09:53;;;;;;;1.40;0.60;;;;;;;;;;5049066;28;20214;-66
2023/01/17 00:12:20;;;;;;;1.37;0.50;;;;;;;;;;5052460;28;20255;-66
2023/01/17 00:14:47;;;;;;;0.93;0.90;;;;;;;;;;5050747;28;20254;-67
2023/01/17 00:17:16;;;;;;;1.07;0.97;;;;;;;;;;5069135;28;20264;-67
2023/01/17 01:35:19;;;;;;;1.03;0.90;;;;;;;;;;5056600;28;20251;-65
2023/01/17 01:37:47;;;;;;;1.43;0.73;;;;;;;;;;5059211;28;20509;-65
2023/01/17 01:40:15;;;;;;;0.57;0.53;;;;;;;;;;5057988;28;20218;-65
2023/01/17 01:42:48;;;;;;;0.67;0.50;;;;;;;;;;5058384;28;20630;-65
2023/01/17 01:45:16;;;;;;;0.30;0.30;;;;;;;;;;5057627;28;20303;-65
2023/01/17 01:47:44;;;;;;;3.13;1.10;;;;;;;;;;5056812;28;20628;-65
2023/01/17 01:50:12;;;;;;;0.50;0.50;;;;;;;;;;5049431;28;20311;-65
2023/01/17 01:52:42;;;;;;;0.53;0.50;;;;;;;;;;5058817;28;20620;-66
2023/01/17 01:55:13;;;;;;;0.70;0.70;;;;;;;;;;5057798;28;20224;-66
2023/01/17 01:57:42;;;;;;;0.30;0.30;;;;;;;;;;5060390;28;20230;-65
2023/01/17 02:00:14;;;;;;;0.40;0.40;;;;;;;;;;5060794;28;20214;-66
2023/01/17 02:02:42;;;;;;;4.37;0.40;;;;;;;;;;5050142;28;20294;-66
2023/01/17 02:05:10;;;;;;;0.40;0.30;;;;;;;;;;5052590;28;20316;-66
2023/01/17 02:07:39;;;;;;;0.93;0.43;;;;;;;;;;5068150;28;20291;-66
2023/01/17 02:10:06;;;;;;;0.43;0.30;;;;;;;;;;5061246;28;20825;-66
2023/01/17 02:12:35;;;;;;;0.60;0.60;;;;;;;;;;5058830;28;20318;-66
2023/01/17 02:15:02;;;;;;;0.50;0.50;;;;;;;;;;5059388;28;20231;-66
2023/01/17 02:17:33;;;;;;;0.47;0.47;;;;;;;;;;5050537;28;20216;-66
2023/01/17 02:20:15;;;;;;;1.90;0.60;;;;;;;;;;5061043;28;20237;-66
2023/01/17 02:22:54;;;;;;;0.40;0.40;;;;;;;;;;5057532;28;20208;-66
2023/01/17 02:25:38;;;;;;;0.40;0.40;;;;;;;;;;5056007;28;20200;-66
2023/01/17 02:28:15;;;;;;;0.27;0.27;;;;;;;;;;5057814;28;20216;-66
2023/01/17 02:30:46;;;;;;;1.23;0.40;;;;;;;;;;5057507;28;20218;-67
2023/01/17 02:33:18;;;;;;;4.27;0.60;;;;;;;;;;5058048;28;20213;-66
2023/01/17 02:35:49;;;;;;;1.87;0.40;;;;;;;;;;5058310;28;20243;-66
2023/01/17 02:38:21;;;;;;;0.87;0.83;;;;;;;;;;5057444;28;20588;-66
2023/01/17 02:40:50;;;;;;;0.70;0.70;;;;;;;;;;5056124;28;20944;-66
2023/01/17 02:43:18;;;;;;;0.87;0.47;;;;;;;;;;5060110;28;20575;-66
2023/01/17 02:45:46;;;;;;;0.67;0.50;;;;;;;;;;5058894;28;20200;-66
2023/01/17 02:48:15;;;;;;;2.10;0.40;;;;;;;;;;5050693;28;20236;-66
2023/01/17 02:50:54;;;;;;;0.37;0.37;;;;;;;;;;5055023;28;20349;-66
2023/01/17 02:53:28;;;;;;;2.47;0.50;;;;;;;;;;5054000;28;20210;-66
2023/01/17 02:56:00;;;;;;;0.70;0.70;;;;;;;;;;5062656;28;20231;-65
2023/01/17 02:58:35;;;;;;;0.47;0.47;;;;;;;;;;5056349;28;20216;-66
2023/01/17 03:01:09;;;;;;;0.60;0.30;;;;;;;;;;5049094;28;20203;-65
2023/01/17 03:03:40;;;;;;;0.83;0.67;;;;;;;;;;5062770;28;20214;-66
2023/01/17 03:06:12;;;;;;;1.07;0.70;;;;;;;;;;5051127;28;20200;-66
2023/01/17 03:08:40;;;;;;;0.60;0.60;;;;;;;;;;5051576;28;20215;-66
2023/01/17 03:11:08;;;;;;;6.27;0.70;;;;;;;;;;5069250;28;20239;-66
2023/01/17 03:13:35;;;;;;;0.37;0.37;;;;;;;;;;5068795;28;20364;-66
2023/01/17 03:16:03;;;;;;;0.40;0.40;;;;;;;;;;5050321;28;20214;-66
2023/01/17 03:18:31;;;;;;;1.10;0.50;;;;;;;;;;5069283;28;20215;-66
2023/01/17 03:20:58;;;;;;;5.03;0.93;;;;;;;;;;5050437;28;20236;-66
2023/01/17 03:23:26;;;;;;;8.27;0.83;;;;;;;;;;5056695;28;20215;-66
2023/01/17 03:25:53;;;;;;;4.53;0.57;;;;;;;;;;5060506;28;20208;-66
2023/01/17 03:28:20;;;;;;;0.30;0.30;;;;;;;;;;5050604;28;20216;-66
2023/01/17 03:30:47;;;;;;;2.73;0.70;;;;;;;;;;5051214;28;20648;-66
2023/01/17 03:33:14;;;;;;;0.50;0.50;;;;;;;;;;5049816;28;20212;-66
2023/01/17 03:35:42;;;;;;;0.47;0.43;;;;;;;;;;5067928;28;20223;-66
2023/01/17 03:38:09;;;;;;;0.40;0.40;;;;;;;;;;5050053;28;20261;-66
2023/01/17 03:40:36;;;;;;;5.20;0.63;;;;;;;;;;5050854;28;20216;-66
2023/01/17 03:43:03;;;;;;;1.23;0.70;;;;;;;;;;5050536;28;20207;-66
2023/01/17 03:45:30;;;;;;;4.60;0.80;;;;;;;;;;5055031;28;20202;-66
2023/01/17 03:47:57;;;;;;;2.10;0.50;;;;;;;;;;5055207;28;20285;-66
2023/01/17 03:50:25;;;;;;;0.73;0.73;;;;;;;;;;5050703;28;20207;-66
2023/01/17 03:52:53;;;;;;;1.80;0.83;;;;;;;;;;5048267;28;20294;-66
2023/01/17 03:55:21;;;;;;;0.50;0.50;;;;;;;;;;5061763;28;20230;-66
2023/01/17 03:57:48;;;;;;;0.47;0.47;;;;;;;;;;5060357;28;20204;-66
2023/01/17 04:00:15;;;;;;;0.60;0.60;;;;;;;;;;5060637;28;20215;-66
2023/01/17 04:02:43;;;;;;;0.53;0.53;;;;;;;;;;5058813;28;20229;-66
2023/01/17 04:05:10;;;;;;;4.53;0.50;;;;;;;;;;5061458;28;20261;-66
2023/01/17 04:07:37;;;;;;;5.83;0.67;;;;;;;;;;5058504;28;20216;-66
2023/01/17 04:10:06;;;;;;;0.73;0.63;;;;;;;;;;5056741;28;20233;-66
2023/01/17 04:12:33;;;;;;;0.93;0.67;;;;;;;;;;5049032;28;20243;-66
2023/01/17 04:15:00;;;;;;;0.60;0.60;;;;;;;;;;5051025;28;20224;-66
2023/01/17 04:17:27;;;;;;;0.60;0.60;;;;;;;;;;5050385;28;20208;-66
2023/01/17 04:19:54;;;;;;;3.40;0.90;;;;;;;;;;5055042;28;20252;-66
2023/01/17 04:22:22;;;;;;;0.43;0.43;;;;;;;;;;5050047;28;20208;-66
2023/01/17 04:24:50;;;;;;;1.13;0.43;;;;;;;;;;5053105;28;20246;-66
2023/01/17 04:27:18;;;;;;;0.60;0.60;;;;;;;;;;5053769;28;20220;-66
2023/01/17 04:29:45;;;;;;;0.60;0.60;;;;;;;;;;5051406;28;20211;-66
2023/01/17 04:32:13;;;;;;;0.93;0.70;;;;;;;;;;5063999;28;20226;-66
2023/01/17 04:34:40;;;;;;;0.50;0.50;;;;;;;;;;5048453;28;20246;-66
2023/01/17 04:37:07;;;;;;;0.50;0.50;;;;;;;;;;5055538;28;20612;-66
2023/01/17 04:39:34;;;;;;;1.50;0.77;;;;;;;;;;5048443;28;20211;-67
2023/01/17 04:42:01;;;;;;;9.40;0.60;;;;;;;;;;5062405;28;20207;-66
2023/01/17 04:44:30;;;;;;;1.57;0.77;;;;;;;;;;5059443;28;20724;-66
2023/01/17 04:46:57;;;;;;;1.53;0.67;;;;;;;;;;5057265;28;20245;-66
2023/01/17 04:49:24;;;;;;;0.47;0.47;;;;;;;;;;5067273;28;20682;-66
2023/01/17 04:51:51;;;;;;;0.63;0.63;;;;;;;;;;5065143;28;20206;-66
2023/01/17 04:54:18;;;;;;;0.63;0.63;;;;;;;;;;5066507;28;20607;-66
2023/01/17 04:56:45;;;;;;;0.93;0.60;;;;;;;;;;5052051;28;20230;-66
2023/01/17 04:59:12;;;;;;;1.10;1.00;;;;;;;;;;5048299;28;20219;-67
2023/01/17 05:01:41;;;;;;;0.80;0.80;;;;;;;;;;5052314;28;20218;-66
2023/01/17 05:04:08;;;;;;;0.90;0.90;;;;;;;;;;5048260;28;20213;-66
2023/01/17 05:06:35;;;;;;;4.13;0.83;;;;;;;;;;5052163;28;20215;-66
2023/01/17 05:09:02;;;;;;;1.13;0.97;;;;;;;;;;5053400;28;20211;-65
2023/01/17 05:11:29;;;;;;;2.07;0.90;;;;;;;;;;5050601;28;20251;-67
2023/01/17 05:13:56;;;;;;;1.77;1.10;;;;;;;;;;5048099;28;20655;-68
2023/01/17 05:16:23;;;;;;;0.97;0.77;;;;;;;;;;5056577;28;20276;-67
2023/01/17 05:18:52;;;;;;;1.03;0.93;;;;;;;;;;5058726;28;20692;-67
2023/01/17 05:21:20;;;;;;;1.70;0.90;;;;;;;;;;5056282;28;20211;-66
2023/01/17 05:23:48;;;;;;;2.87;1.10;;;;;;;;;;5057251;28;20214;-67
2023/01/17 05:26:15;;;;;;;3.17;0.93;;;;;;;;;;5062948;28;20249;-67
2023/01/17 05:28:42;;;;;;;0.87;0.87;;;;;;;;;;5067610;28;20279;-67
2023/01/17 05:31:10;;;;;;;0.93;0.80;;;;;;;;;;5066171;28;20665;-68
2023/01/17 05:33:38;;;;;;;2.63;1.10;;;;;;;;;;5056869;28;20208;-67
2023/01/17 05:36:07;;;;;;;0.67;0.67;;;;;;;;;;5049953;28;20916;-67
2023/01/17 05:38:35;;;;;;;3.60;1.30;;;;;;;;;;5058779;28;20219;-67
2023/01/17 05:41:03;;;;;;;1.60;0.63;;;;;;;;;;5061436;28;20203;-68
2023/01/17 05:43:31;;;;;;;1.63;0.63;;;;;;;;;;5054555;28;20200;-67
2023/01/17 05:45:58;;;;;;;2.40;1.07;;;;;;;;;;5049120;28;20212;-67
2023/01/17 05:48:25;;;;;;;1.07;1.00;;;;;;;;;;5051562;28;20199;-67
2023/01/17 05:50:52;;;;;;;0.93;0.70;;;;;;;;;;5064121;28;20205;-68
2023/01/17 05:53:21;;;;;;;0.70;0.70;;;;;;;;;;5066494;28;20210;-67
2023/01/17 05:55:48;;;;;;;0.40;0.40;;;;;;;;;;5049411;28;20231;-67
2023/01/17 05:58:16;;;;;;;0.63;0.63;;;;;;;;;;5055844;28;20210;-67
2023/01/17 06:00:43;;;;;;;0.50;0.50;;;;;;;;;;5059731;28;20216;-66
2023/01/17 06:03:11;;;;;;;1.30;0.80;;;;;;;;;;5048630;28;20206;-67
2023/01/17 06:05:38;;;;;;;1.60;1.03;;;;;;;;;;5057096;28;20674;-67
2023/01/17 06:08:05;;;;;;;1.27;0.80;;;;;;;;;;5047436;28;20219;-64
2023/01/17 06:10:34;;;;;;;1.17;0.80;;;;;;;;;;5049331;28;20214;-67
2023/01/17 06:13:02;;;;;;;1.30;0.93;;;;;;;;;;5047861;28;20208;-67
2023/01/17 06:15:29;;;;;;;0.83;0.83;;;;;;;;;;5056670;28;20230;-67
2023/01/17 06:17:57;;;;;;;2.07;1.03;;;;;;;;;;5048934;28;20222;-66
2023/01/17 06:20:26;;;;;;;0.83;0.83;;;;;;;;;;5063477;28;20219;-67
2023/01/17 06:22:54;;;;;;;0.73;0.73;;;;;;;;;;5067108;28;20318;-67
2023/01/17 06:25:21;;;;;;;0.60;0.60;;;;;;;;;;5052876;28;20200;-67
2023/01/17 06:27:49;;;;;;;1.13;0.80;;;;;;;;;;5050069;28;20216;-66
2023/01/17 06:30:16;;;;;;;0.87;0.87;;;;;;;;;;5058273;28;20203;-66
2023/01/17 06:32:43;;;;;;;1.00;1.00;;;;;;;;;;5049726;28;20212;-69
2023/01/17 06:35:10;;;;;;;1.00;1.00;;;;;;;;;;5059043;28;20234;-67
2023/01/17 06:37:37;;;;;;;1.73;1.00;;;;;;;;;;5062628;28;20271;-66
2023/01/17 06:40:05;;;;;;;0.70;0.70;;;;;;;;;;5069632;28;20208;-67
2023/01/17 06:42:32;;;;;;;1.40;1.00;;;;;;;;;;5068641;28;20220;-67
2023/01/17 06:45:00;;;;;;;1.63;1.00;;;;;;;;;;5063324;28;20928;-66
2023/01/17 06:47:27;;;;;;;2.17;1.23;;;;;;;;;;5049900;28;20220;-67
2023/01/17 06:49:54;;;;;;;1.27;1.17;;;;;;;;;;5065400;28;20223;-67
2023/01/17 06:52:25;;;;;;;0.80;0.80;;;;;;;;;;5071014;28;20210;-67
2023/01/17 06:54:52;;;;;;;0.90;0.90;;;;;;;;;;5068968;28;20654;-67
2023/01/17 06:57:19;;;;;;;0.60;0.60;;;;;;;;;;5069550;28;20222;-67
2023/01/17 06:59:46;;;;;;;1.10;0.90;;;;;;;;;;5069976;28;20206;-67
2023/01/17 07:02:15;;;;;;;0.80;0.80;;;;;;;;;;5069963;28;20217;-67
2023/01/17 07:04:42;;;;;;;2.00;1.10;;;;;;;;;;5070401;28;20214;-67
2023/01/17 07:07:09;;;;;;;1.17;1.07;;;;;;;;;;5070172;28;20207;-67
2023/01/17 07:09:36;;;;;;;0.63;0.63;;;;;;;;;;5069355;28;20210;-67
2023/01/17 07:12:03;;;;;;;1.90;0.97;;;;;;;;;;5069656;28;20707;-67
2023/01/17 07:14:30;;;;;;;1.07;0.90;;;;;;;;;;5070267;28;20215;-67
2023/01/17 07:16:57;;;;;;;1.30;1.20;;;;;;;;;;5069845;28;20233;-67
2023/01/17 07:19:25;;;;;;;1.43;1.10;;;;;;;;;;5069007;28;20211;-67
2023/01/17 07:21:52;;;;;;;1.77;0.97;;;;;;;;;;5069608;28;20210;-67
2023/01/17 07:24:19;;;;;;;0.80;0.80;;;;;;;;;;5069827;28;20221;-67
2023/01/17 07:26:48;;;;;;;1.20;0.90;;;;;;;;;;5069814;28;20949;-67
2023/01/17 07:29:15;;;;;;;0.87;0.80;;;;;;;;;;5069642;28;20215;-67
2023/01/17 07:31:42;;;;;;;0.87;0.87;;;;;;;;;;5069459;28;20586;-67
2023/01/17 07:34:09;;;;;;;0.70;0.70;;;;;;;;;;5069534;28;20218;-67
2023/01/17 07:36:38;;;;;;;3.40;0.80;;;;;;;;;;5069631;28;20250;-66
2023/01/17 07:39:05;;;;;;;1.30;1.20;;;;;;;;;;5069386;28;20218;-67
2023/01/17 07:41:33;;;;;;;3.70;1.33;;;;;;;;;;5068578;28;20310;-67
2023/01/17 07:44:00;;;;;;;0.83;0.83;;;;;;;;;;5069431;28;20207;-67
2023/01/17 07:46:27;;;;;;;0.80;0.80;;;;;;;;;;5069357;28;20207;-67
2023/01/17 07:48:54;;;;;;;2.30;0.77;;;;;;;;;;5068553;28;20207;-66
2023/01/17 07:51:21;;;;;;;0.53;0.53;;;;;;;;;;5069143;28;20285;-67
2023/01/17 07:53:50;;;;;;;3.03;1.17;;;;;;;;;;5069264;28;20229;-67
2023/01/17 07:56:17;;;;;;;4.33;0.97;;;;;;;;;;5068500;28;20242;-67
2023/01/17 07:58:44;;;;;;;1.33;0.90;;;;;;;;;;5069024;28;20214;-67
2023/01/17 08:01:12;;;;;;;1.47;1.37;;;;;;;;;;5068743;28;20669;-67
2023/01/17 08:03:39;;;;;;;1.20;1.07;;;;;;;;;;5068925;28;20211;-67
2023/01/17 08:06:07;;;;;;;0.70;0.70;;;;;;;;;;5069140;28;20661;-67
2023/01/17 08:08:34;;;;;;;1.30;1.20;;;;;;;;;;5068764;28;20210;-67
2023/01/17 08:11:02;;;;;;;3.80;1.37;;;;;;;;;;5068587;28;20575;-67
2023/01/17 08:13:29;;;;;;;2.10;1.13;;;;;;;;;;5065385;28;20212;-64
2023/01/17 08:15:56;;;;;;;2.83;1.20;;;;;;;;;;5050557;28;20293;-65
2023/01/17 08:18:24;;;;;;;1.20;1.10;;;;;;;;;;5057540;28;20305;-67
2023/01/17 08:20:51;;;;;;;2.07;1.03;;;;;;;;;;5048632;28;20211;-67
2023/01/17 08:23:18;;;;;;;1.23;1.17;;;;;;;;;;5051005;28;20203;-66
2023/01/17 08:25:45;;;;;;;1.43;1.27;;;;;;;;;;5054423;28;20202;-66
2023/01/17 08:28:14;;;;;;;1.23;1.07;;;;;;;;;;5055508;28;20200;-67
2023/01/17 08:30:41;;;;;;;1.00;1.00;;;;;;;;;;5048768;28;20234;-66
2023/01/17 08:33:08;;;;;;;2.20;1.83;;;;;;;;;;5067954;28;20218;-64
2023/01/17 08:35:36;;;;;;;2.27;1.23;;;;;;;;;;5059298;28;20211;-69
2023/01/17 08:38:03;;;;;;;1.63;1.40;;;;;;;;;;5048639;28;20720;-67
2023/01/17 08:40:30;;;;;;;1.50;1.40;;;;;;;;;;5048606;28;20247;-69
2023/01/17 08:42:58;;;;;;;2.43;1.63;;;;;;;;;;5048331;28;20310;-71
2023/01/17 08:45:27;;;;;;;1.50;1.40;;;;;;;;;;5048080;28;20210;-69
2023/01/17 08:47:54;;;;;;;2.27;1.93;;;;;;;;;;5048442;28;20230;-76
2023/01/17 08:50:23;;;;;;;1.87;1.70;;;;;;;;;;5049472;28;20634;-75
2023/01/17 08:52:52;;;;;;;1.80;1.70;;;;;;;;;;5048772;28;20207;-68
2023/01/17 08:55:19;;;;;;;0.97;0.97;;;;;;;;;;5048917;28;20586;-68
2023/01/17 08:57:46;;;;;;;3.20;1.67;;;;;;;;;;5057861;28;20234;-68
2023/01/17 09:00:13;;;;;;;2.97;1.97;;;;;;;;;;5066351;28;20207;-67
2023/01/17 09:02:42;;;;;;;1.87;1.33;;;;;;;;;;5064836;28;20708;-67
2023/01/17 09:05:10;;;;;;;6.50;1.70;;;;;;;;;;5047796;28;20212;-65
2023/01/17 09:07:37;;;;;;;1.60;1.47;;;;;;;;;;5051493;28;20208;-68
2023/01/17 09:10:04;;;;;;;2.57;1.53;;;;;;;;;;5064689;28;20636;-71
2023/01/17 09:12:33;;;;;;;2.40;1.70;;;;;;;;;;5059055;28;20230;-69
2023/01/17 09:15:01;;;;;;;1.90;1.60;;;;;;;;;;5066809;28;20209;-66
2023/01/17 09:17:28;;;;;;;1.50;1.40;;;;;;;;;;5067105;28;20220;-67
2023/01/17 09:19:58;;;;;;;1.70;1.63;;;;;;;;;;5058193;28;20204;-70
2023/01/17 09:22:25;;;;;;;2.30;1.63;;;;;;;;;;5060916;28;20213;-65
2023/01/17 09:24:52;;;;;;;2.17;1.33;;;;;;;;;;5065639;28;20207;-69
2023/01/17 09:27:19;;;;;;;1.40;1.30;;;;;;;;;;5047935;28;20210;-69
2023/01/17 09:29:46;;;;;;;1.40;1.30;;;;;;;;;;5057244;28;21026;-69
2023/01/17 09:32:15;;;;;;;2.10;1.10;;;;;;;;;;5061696;28;20248;-69
2023/01/17 09:34:42;;;;;;;1.37;1.27;;;;;;;;;;5049712;28;20211;-65
2023/01/17 09:37:11;;;;;;;1.40;1.30;;;;;;;;;;5048063;28;20318;-68
2023/01/17 09:39:38;;;;;;;1.47;1.37;;;;;;;;;;5058227;28;20207;-69
2023/01/17 09:42:12;;;;;;;2.00;1.40;;;;;;;;;;5048569;28;20207;-70
2023/01/17 09:44:41;;;;;;;2.13;2.00;;;;;;;;;;5048871;28;20212;-77
2023/01/17 09:47:13;;;;;;;1.20;1.20;;;;;;;;;;5059944;28;20823;-77
2023/01/17 09:49:42;;;;;;;1.33;1.23;;;;;;;;;;5065981;28;20294;-76
2023/01/17 09:52:11;;;;;;;1.33;1.00;;;;;;;;;;5059884;28;20219;-76
2023/01/17 09:54:40;;;;;;;1.23;0.93;;;;;;;;;;5064466;28;20211;-76
2023/01/17 09:57:14;;;;;;;1.93;1.10;;;;;;;;;;5055046;28;20227;-77
2023/01/17 09:59:45;;;;;;;1.00;1.00;;;;;;;;;;5055600;28;20207;-77
2023/01/17 10:02:21;;;;;;;0.70;0.70;;;;;;;;;;5051832;28;20212;-76
2023/01/17 10:04:55;;;;;;;0.93;0.93;;;;;;;;;;5059404;28;20210;-75
2023/01/17 10:07:30;;;;;;;1.10;1.10;;;;;;;;;;5059092;28;20199;-75
2023/01/17 10:10:03;;;;;;;1.00;1.00;;;;;;;;;;5063947;28;20206;-76
2023/01/17 10:12:33;;;;;;;0.87;0.80;;;;;;;;;;5067205;28;20234;-76
2023/01/17 10:15:09;;;;;;;5.70;1.43;;;;;;;;;;5059829;28;20210;-76
2023/01/17 10:17:41;;;;;;;1.30;0.87;;;;;;;;;;5060327;28;20405;-76
2023/01/17 10:20:13;;;;;;;1.20;1.10;;;;;;;;;;5057582;28;20210;-76
2023/01/17 10:22:50;;;;;;;1.20;1.10;;;;;;;;;;5056626;28;20207;-76
2023/01/17 10:25:31;;;;;;;0.90;0.90;;;;;;;;;;5055467;28;20693;-76
2023/01/17 10:27:59;;;;;;;0.90;0.90;;;;;;;;;;5056702;28;20200;-76
2023/01/17 10:30:29;;;;;;;0.90;0.90;;;;;;;;;;5057280;28;20214;-77
2023/01/17 10:32:57;;;;;;;2.97;0.87;;;;;;;;;;5062992;28;20203;-76
2023/01/17 10:35:31;;;;;;;0.60;0.60;;;;;;;;;;5068545;28;20226;-77
2023/01/17 10:37:59;;;;;;;0.67;0.67;;;;;;;;;;5068909;28;20226;-77
2023/01/17 10:40:32;;;;;;;1.03;0.60;;;;;;;;;;5059992;28;20203;-76
2023/01/17 10:43:01;;;;;;;0.90;0.90;;;;;;;;;;5067066;28;20284;-77
2023/01/17 10:45:29;;;;;;;4.27;0.90;;;;;;;;;;5057997;28;20223;-77
2023/01/17 10:48:00;;;;;;;0.90;0.90;;;;;;;;;;5053578;28;20211;-76
2023/01/17 10:50:28;;;;;;;0.80;0.80;;;;;;;;;;5070509;28;20622;-77
2023/01/17 10:52:57;;;;;;;0.80;0.80;;;;;;;;;;5064591;28;21043;-77
2023/01/17 10:55:31;;;;;;;3.30;0.90;;;;;;;;;;5050701;28;20216;-76
2023/01/17 10:57:58;;;;;;;2.73;0.80;;;;;;;;;;5058346;28;20637;-77
2023/01/17 11:00:42;;;;;;;2.00;0.93;;;;;;;;;;5051238;28;20222;-74
2023/01/17 11:03:10;;;;;;;1.13;1.03;;;;;;;;;;5057907;28;20617;-74
2023/01/17 11:05:39;;;;;;;0.83;0.83;;;;;;;;;;5066863;28;20217;-76
2023/01/17 11:08:07;;;;;;;0.47;0.47;;;;;;;;;;5053160;28;20200;-75
2023/01/17 11:10:38;;;;;;;0.60;0.60;;;;;;;;;;5058960;28;20234;-75
2023/01/17 11:13:06;;;;;;;1.23;0.60;;;;;;;;;;5062845;28;20203;-75
2023/01/17 11:15:33;;;;;;;0.60;0.60;;;;;;;;;;5068829;28;20222;-76
2023/01/17 11:18:04;;;;;;;0.80;0.60;;;;;;;;;;5069949;28;20225;-76
2023/01/17 11:20:33;;;;;;;2.93;1.33;;;;;;;;;;5069319;28;20214;-76
2023/01/17 11:23:03;;;;;;;1.00;1.00;;;;;;;;;;5067372;28;20649;-72
2023/01/17 11:25:32;;;;;;;1.33;0.60;;;;;;;;;;5070184;28;20259;-76
2023/01/17 11:28:02;;;;;;;1.13;0.70;;;;;;;;;;5051389;28;20254;-75
2023/01/17 11:30:29;;;;;;;1.37;0.80;;;;;;;;;;5069181;28;20207;-77
2023/01/17 11:32:57;;;;;;;0.60;0.60;;;;;;;;;;5068736;28;20286;-76
2023/01/17 11:35:25;;;;;;;0.43;0.43;;;;;;;;;;5061849;28;20785;-76
2023/01/17 11:37:57;;;;;;;0.77;0.70;;;;;;;;;;5056749;28;20226;-76
2023/01/17 11:40:26;;;;;;;1.07;1.07;;;;;;;;;;5068921;28;20211;-77
2023/01/17 11:43:05;;;;;;;0.97;0.70;;;;;;;;;;5069760;28;20222;-77
2023/01/17 11:45:33;;;;;;;0.80;0.80;;;;;;;;;;5069470;28;20210;-77
2023/01/17 11:48:14;;;;;;;0.70;0.70;;;;;;;;;;5064556;28;20196;-77
2023/01/17 11:50:41;;;;;;;0.50;0.50;;;;;;;;;;5049604;28;20974;-77
2023/01/17 11:53:16;;;;;;;2.30;0.90;;;;;;;;;;5060990;28;20800;-77
2023/01/17 11:55:53;;;;;;;0.67;0.63;;;;;;;;;;5067806;28;20227;-76
2023/01/17 11:58:22;;;;;;;0.63;0.63;;;;;;;;;;5069260;28;20262;-77
2023/01/17 12:00:54;;;;;;;0.73;0.73;;;;;;;;;;5067589;28;20218;-77
2023/01/17 12:03:25;;;;;;;0.97;0.80;;;;;;;;;;5053165;28;20211;-78
2023/01/17 12:05:59;;;;;;;0.60;0.60;;;;;;;;;;5053944;28;20210;-78
2023/01/17 12:08:31;;;;;;;0.70;0.70;;;;;;;;;;5056473;28;20211;-78
2023/01/17 12:11:01;;;;;;;0.90;0.90;;;;;;;;;;5059718;28;20242;-79
2023/01/17 12:16:29;;;;;;;1.37;0.70;;;;;;;;;;5064563;28;20349;-78
2023/01/17 12:19:02;;;;;;;2.63;0.80;;;;;;;;;;5051057;28;20216;-74
2023/01/17 12:21:36;;;;;;;1.47;1.13;;;;;;;;;;5059278;28;20227;-72
2023/01/17 12:24:14;;;;;;;1.43;0.77;;;;;;;;;;5055695;28;20207;-75
2023/01/17 12:26:42;;;;;;;1.23;0.80;;;;;;;;;;5054986;28;20223;-75
2023/01/17 12:29:30;;;;;;;0.97;0.90;;;;;;;;;;5064795;28;20590;-76
2023/01/17 12:32:03;;;;;;;3.13;0.90;;;;;;;;;;5056715;28;20203;-76
2023/01/17 12:34:32;;;;;;;1.00;1.00;;;;;;;;;;5061655;28;20211;-77
2023/01/17 12:37:01;;;;;;;1.00;0.83;;;;;;;;;;5055512;28;20239;-76
2023/01/17 12:39:32;;;;;;;1.17;0.97;;;;;;;;;;5067531;28;20305;-74
2023/01/17 12:42:02;;;;;;;1.97;1.00;;;;;;;;;;5058846;28;20207;-85
2023/01/17 12:44:37;;;;;;;0.80;0.80;;;;;;;;;;5056145;28;20291;-77
2023/01/17 12:47:06;;;;;;;4.23;0.93;;;;;;;;;;5046424;28;20260;-77
2023/01/17 12:49:37;;;;;;;1.00;0.90;;;;;;;;;;5057532;28;20207;-77
2023/01/17 12:52:07;;;;;;;1.03;1.00;;;;;;;;;;5060061;28;20207;-77
2023/01/17 12:54:36;;;;;;;0.63;0.63;;;;;;;;;;5064254;28;20227;-77
2023/01/17 12:57:06;;;;;;;0.97;0.90;;;;;;;;;;5057151;28;20227;-77
2023/01/17 12:59:38;;;;;;;1.00;0.93;;;;;;;;;;5058501;28;20203;-77
2023/01/17 13:02:13;;;;;;;0.70;0.70;;;;;;;;;;5062995;28;20212;-77
2023/01/17 13:04:43;;;;;;;0.50;0.50;;;;;;;;;;5050889;28;20218;-78
2023/01/17 13:07:13;;;;;;;0.50;0.50;;;;;;;;;;5065236;28;20203;-78
2023/01/17 13:09:41;;;;;;;2.03;0.60;;;;;;;;;;5065667;28;20215;-78
2023/01/17 13:12:11;;;;;;;0.60;0.60;;;;;;;;;;5064820;28;20247;-77
2023/01/17 13:14:40;;;;;;;0.83;0.70;;;;;;;;;;5067462;28;20218;-76
2023/01/17 13:17:13;;;;;;;0.60;0.60;;;;;;;;;;5047936;28;20685;-76
2023/01/17 13:19:44;;;;;;;0.90;0.90;;;;;;;;;;5062648;28;20215;-76
2023/01/17 13:22:16;;;;;;;0.70;0.70;;;;;;;;;;5066521;28;20206;-76
2023/01/17 13:24:47;;;;;;;0.70;0.70;;;;;;;;;;5063671;28;20211;-76
2023/01/17 13:27:27;;;;;;;1.80;1.07;;;;;;;;;;5054215;28;20665;-76
2023/01/17 13:30:03;;;;;;;1.27;0.93;;;;;;;;;;5062941;28;20312;-76
2023/01/17 13:32:45;;;;;;;0.87;0.70;;;;;;;;;;5047076;28;20215;-77
2023/01/17 13:35:21;;;;;;;0.63;0.63;;;;;;;;;;5065073;28;20911;-75
2023/01/17 13:38:03;;;;;;;0.40;0.40;;;;;;;;;;5067064;28;20233;-76
2023/01/17 13:40:35;;;;;;;0.60;0.60;;;;;;;;;;5062301;28;20225;-76
2023/01/17 13:43:03;;;;;;;0.73;0.50;;;;;;;;;;5067083;28;20296;-76
2023/01/17 13:45:32;;;;;;;0.67;0.50;;;;;;;;;;5046725;28;20215;-76
2023/01/17 13:48:18;;;;;;;0.57;0.57;;;;;;;;;;5046868;28;20223;-76
2023/01/17 13:50:46;;;;;;;0.53;0.50;;;;;;;;;;5061179;28;20638;-76
2023/01/17 13:53:32;;;;;;;0.63;0.60;;;;;;;;;;5046919;28;20322;-76
2023/01/17 13:56:02;;;;;;;3.30;0.60;;;;;;;;;;5046694;28;20238;-76
2023/01/17 13:58:29;;;;;;;0.70;0.70;;;;;;;;;;5046834;28;20226;-76
2023/01/17 14:00:57;;;;;;;2.00;0.60;;;;;;;;;;5047057;28;20203;-76
2023/01/17 14:03:39;;;;;;;0.40;0.40;;;;;;;;;;5055051;28;20213;-77
2023/01/17 14:06:29;;;;;;;3.10;0.40;;;;;;;;;;5064921;28;20268;-76
2023/01/17 14:09:00;;;;;;;3.50;1.00;;;;;;;;;;5066926;28;20299;-76
2023/01/17 14:11:27;;;;;;;0.93;0.50;;;;;;;;;;5046905;28;20239;-76
2023/01/17 14:13:55;;;;;;;0.53;0.50;;;;;;;;;;5057870;28;20305;-76
2023/01/17 14:16:28;;;;;;;0.97;0.60;;;;;;;;;;5067138;28;20207;-77
2023/01/17 14:18:55;;;;;;;0.50;0.50;;;;;;;;;;5066657;28;20241;-77
2023/01/17 14:21:24;;;;;;;0.40;0.40;;;;;;;;;;5066962;28;20277;-77
2023/01/17 14:24:02;;;;;;;0.67;0.60;;;;;;;;;;5067091;28;20210;-77
2023/01/17 14:26:47;;;;;;;0.30;0.30;;;;;;;;;;5067128;28;20215;-77
2023/01/17 14:29:33;;;;;;;1.53;0.50;;;;;;;;;;5056267;28;20211;-76
2023/01/17 14:32:02;;;;;;;0.57;0.40;;;;;;;;;;5057703;28;20219;-77
2023/01/17 14:34:29;;;;;;;1.27;0.97;;;;;;;;;;5046873;28;20495;-74
2023/01/17 14:37:04;;;;;;;0.70;0.57;;;;;;;;;;5049942;28;20215;-73
2023/01/17 14:39:31;;;;;;;0.40;0.40;;;;;;;;;;5058692;28;20229;-76
2023/01/17 14:41:58;;;;;;;1.07;0.77;;;;;;;;;;5066622;28;20214;-77
2023/01/17 14:44:25;;;;;;;0.67;0.50;;;;;;;;;;5057006;28;20309;-76
2023/01/17 14:46:52;;;;;;;0.37;0.37;;;;;;;;;;5050149;28;20216;-75
2023/01/17 14:49:24;;;;;;;0.40;0.40;;;;;;;;;;5066791;28;20199;-76
2023/01/17 14:52:00;;;;;;;0.40;0.40;;;;;;;;;;5057681;28;20212;-76
2023/01/17 14:54:27;;;;;;;0.40;0.40;;;;;;;;;;5060048;28;20210;-69
2023/01/17 14:57:09;;;;;;;0.87;0.60;;;;;;;;;;5060658;28;20220;-74
2023/01/17 14:59:36;;;;;;;0.30;0.30;;;;;;;;;;5053571;28;20234;-75
2023/01/17 15:02:04;;;;;;;0.50;0.50;;;;;;;;;;5055111;28;20268;-75
2023/01/17 15:04:37;;;;;;;0.40;0.33;;;;;;;;;;5060602;28;20208;-77
2023/01/17 15:07:04;;;;;;;3.83;0.70;;;;;;;;;;5063290;28;20302;-75
2023/01/17 15:09:33;;;;;;;0.40;0.40;;;;;;;;;;5065749;28;20219;-74
2023/01/17 15:12:01;;;;;;;0.40;0.40;;;;;;;;;;5064246;28;20242;-74
2023/01/17 15:14:31;;;;;;;1.87;0.67;;;;;;;;;;5060277;28;20700;-75
2023/01/17 15:17:08;;;;;;;0.33;0.33;;;;;;;;;;5051923;28;20561;-67
2023/01/17 15:19:42;;;;;;;0.60;0.60;;;;;;;;;;5061116;28;20230;-74
2023/01/17 15:22:10;;;;;;;1.80;0.63;;;;;;;;;;5061528;28;20890;-75
2023/01/17 15:24:43;;;;;;;2.63;0.50;;;;;;;;;;5057574;28;20219;-76
2023/01/17 15:27:12;;;;;;;5.20;0.43;;;;;;;;;;5057109;28;20207;-75
2023/01/17 15:29:40;;;;;;;1.83;0.30;;;;;;;;;;5064234;28;20203;-75
2023/01/17 15:32:07;;;;;;;0.70;0.33;;;;;;;;;;5053989;28;20207;-75
2023/01/17 15:34:36;;;;;;;0.60;0.40;;;;;;;;;;5059463;28;20211;-76
2023/01/17 15:37:06;;;;;;;0.30;0.30;;;;;;;;;;5049387;28;20211;-76
2023/01/17 15:39:34;;;;;;;0.30;0.30;;;;;;;;;;5064784;28;20234;-77
2023/01/17 15:42:03;;;;;;;2.60;2.40;;;;;;;;;;5049365;28;20212;-76
2023/01/17 15:44:33;;;;;;;0.97;0.70;;;;;;;;;;5063499;28;20211;-75
2023/01/17 15:47:00;;;;;;;2.73;0.83;;;;;;;;;;5049114;28;20743;-74
2023/01/17 15:49:28;;;;;;;0.70;0.67;;;;;;;;;;5065201;28;20306;-78
2023/01/17 15:51:56;;;;;;;2.03;1.67;;;;;;;;;;5059635;28;20269;-75
2023/01/17 15:54:43;;;;;;;2.03;1.07;;;;;;;;;;5058347;28;20209;-75
2023/01/17 15:57:35;;;;;;;2.23;1.80;;;;;;;;;;5052662;28;20741;-74
2023/01/17 16:00:05;;;;;;;2.07;1.53;;;;;;;;;;5049228;28;20235;-77
2023/01/17 16:02:37;;;;;;;3.90;1.60;;;;;;;;;;5058742;28;20414;-75
2023/01/17 16:05:26;;;;;;;3.40;1.63;;;;;;;;;;5062393;28;20215;-76
2023/01/17 16:07:53;;;;;;;3.80;1.90;;;;;;;;;;5056497;28;20209;-72
2023/01/17 16:10:23;;;;;;;1.40;1.20;;;;;;;;;;5059206;28;20274;-80
2023/01/17 16:12:50;;;;;;;1.80;1.37;;;;;;;;;;5066112;28;20242;-70
2023/01/17 16:15:19;;;;;;;1.83;1.70;;;;;;;;;;5068913;28;20210;-71
2023/01/17 16:17:47;;;;;;;9.27;4.43;;;;;;;;;;5065262;28;20214;-71
2023/01/17 16:20:18;;;;;;;8.10;4.73;;;;;;;;;;5048189;28;20215;-74
2023/01/17 16:22:45;;;;;;;7.43;3.73;;;;;;;;;;5067331;28;20219;-74